Time;durP1;ratioP1;P1;durP2;ratioP2;P2;SDS_P1;SDS_P2;PMS_P1;PMS_P2;Temp;Humidity;BMP_temperature;BMP_pressure;BME280_temperature;BME280_humidity;BME280_pressure;Samples;Min_cycle;Max_cycle;Signal;HPM_P1;HPM_P2
2020/12/22 16:06:49;;;;;;;4.32;2.33;;;;;;;20.76;47.72;101401.28;5035709;27;96789;-41
2020/12/22 16:09:16;;;;;;;7.45;2.13;;;;;;;20.70;47.72;101395.50;5022021;27;107165;-40
2020/12/22 16:18:02;;;;;;;4.78;2.20;;;;;;;;;;5173237;27;20368;-53
2020/12/22 16:20:29;;;;;;;4.22;2.00;;;;;;;;;;5155110;27;37632;-53
2020/12/22 16:22:55;;;;;;;2.58;1.88;;;;;;;;;;5150143;27;39359;-55
2020/12/22 16:25:21;;;;;;;2.80;1.80;;;;;;;;;;5139292;27;39500;-55
2020/12/22 16:27:48;;;;;;;3.83;1.60;;;;;;;;;;5140377;27;38113;-54
2020/12/22 16:30:14;;;;;;;2.85;1.80;;;;;;;;;;5141210;27;38707;-54
2020/12/22 16:32:41;;;;;;;3.15;1.58;;;;;;;;;;5146720;27;38038;-54
2020/12/22 16:35:08;;;;;;;4.07;1.67;;;;;;;;;;5150803;27;41511;-54
2020/12/22 16:37:35;;;;;;;3.75;1.50;;;;;;;;;;5154443;27;37901;-54
2020/12/22 16:40:01;;;;;;;3.70;1.77;;;;;;;;;;5140350;27;37892;-54
2020/12/22 16:42:27;;;;;;;2.72;1.50;;;;;;;;;;5152353;27;39776;-54
2020/12/22 16:44:54;;;;;;;3.33;1.63;;;;;;;;;;5148055;27;40008;-54
2020/12/22 16:47:20;;;;;;;2.10;1.45;;;;;;;;;;5161654;27;38739;-54
2020/12/22 16:49:47;;;;;;;3.08;1.60;;;;;;;;;;5147314;27;35439;-54
2020/12/22 16:52:13;;;;;;;3.67;1.50;;;;;;;;;;5139974;27;39155;-54
2020/12/22 16:54:39;;;;;;;4.10;1.33;;;;;;;;;;5136212;27;39990;-53
2020/12/22 16:57:06;;;;;;;2.65;1.40;;;;;;;;;;5129099;27;37989;-54
2020/12/22 16:59:33;;;;;;;3.00;1.60;;;;;;;;;;5131161;27;38836;-53
2020/12/22 17:01:59;;;;;;;1.98;1.38;;;;;;;;;;5136648;27;39188;-54
2020/12/22 17:04:26;;;;;;;2.80;1.40;;;;;;;;;;5137589;27;39875;-54
2020/12/22 17:06:52;;;;;;;2.05;1.50;;;;;;;;;;5144493;27;38251;-53
2020/12/22 17:09:18;;;;;;;1.73;1.30;;;;;;;;;;5146522;27;37841;-53
2020/12/22 17:11:45;;;;;;;3.47;1.40;;;;;;;;;;5140873;27;40225;-53
2020/12/22 17:14:11;;;;;;;2.67;1.30;;;;;;;;;;5133886;27;39983;-53
2020/12/22 17:16:37;;;;;;;2.95;1.40;;;;;;;;;;5140850;27;38026;-53
2020/12/22 17:19:04;;;;;;;2.83;1.45;;;;;;;;;;5138698;27;37801;-53
2020/12/22 17:21:30;;;;;;;2.42;1.50;;;;;;;;;;5136639;27;39244;-53
2020/12/22 17:23:57;;;;;;;3.30;1.35;;;;;;;;;;5143456;27;40519;-53
2020/12/22 17:26:23;;;;;;;3.40;1.30;;;;;;;;;;5129847;27;38131;-53
2020/12/22 17:29:03;;;;;;;2.25;1.20;;;;;;;;;;5126273;27;37900;-53
2020/12/22 17:31:29;;;;;;;2.70;1.30;;;;;;;;;;5121897;27;40372;-53
2020/12/22 17:33:56;;;;;;;2.30;1.20;;;;;;;;;;5121810;27;39796;-45
2020/12/22 17:36:22;;;;;;;1.50;1.20;;;;;;;;;;5127520;27;38254;-45
2020/12/22 17:38:48;;;;;;;3.10;1.20;;;;;;;;;;5124271;27;37447;-45
2020/12/22 17:41:15;;;;;;;2.25;1.40;;;;;;;;;;5128028;27;39513;-45
2020/12/22 17:43:42;;;;;;;2.05;1.33;;;;;;;;;;5122782;27;39947;-45
2020/12/22 17:46:10;;;;;;;2.17;1.38;;;;;;;;;;5127780;27;37895;-45
2020/12/22 17:48:38;;;;;;;2.50;1.40;;;;;;;;;;5128226;27;37854;-46
2020/12/22 17:51:07;;;;;;;1.92;1.25;;;;;;;;;;5131201;27;38824;-43
2020/12/22 17:53:34;;;;;;;1.70;1.17;;;;;;;;;;5121599;27;40955;-45
2020/12/22 17:56:01;;;;;;;1.85;1.27;;;;;;;;;;5128678;27;38229;-42
2020/12/22 18:14:16;;;;;;;5.07;1.80;;;;;;;-144.85;100.00;61331.59;5098315;27;79886;-30
2020/12/22 20:29:40;;;;;;;1.83;1.40;;;;;;;18.47;53.01;101394.84;5097004;27;96540;-50
2020/12/22 20:32:07;;;;;;;1.90;1.50;;;;;;;18.83;52.00;101401.31;5077908;27;107257;-55
2020/12/22 20:34:34;;;;;;;2.10;1.67;;;;;;;19.14;51.36;101415.25;5087192;27;124423;-46
2020/12/22 20:37:00;;;;;;;2.33;1.70;;;;;;;19.32;50.84;101412.19;5086844;27;124391;-40
2020/12/22 20:39:27;;;;;;;2.28;1.55;;;;;;;19.36;50.48;101408.28;5070409;27;107306;-40
2020/12/22 20:41:54;;;;;;;2.28;1.58;;;;;;;19.41;50.31;101398.09;5080456;27;107439;-39
2020/12/22 20:44:21;;;;;;;3.35;1.55;;;;;;;19.43;50.20;101396.13;5082278;27;124554;-40
2020/12/22 20:46:47;;;;;;;1.90;1.20;;;;;;;19.45;49.91;101396.88;5087704;27;124115;-40
2020/12/22 20:49:14;;;;;;;4.15;1.60;;;;;;;19.44;49.88;101395.19;5080299;27;107623;-40
2020/12/22 20:51:41;;;;;;;3.28;2.88;;;;;;;19.44;49.75;101384.44;5065694;27;107852;-40
2020/12/22 20:54:09;;;;;;;4.03;1.98;;;;;;;19.41;49.84;101384.66;5086321;27;124760;-40
2020/12/22 20:56:35;;;;;;;2.53;1.20;;;;;;;19.41;49.80;101376.59;5071801;27;123029;-40
2020/12/22 20:59:02;;;;;;;2.85;1.50;;;;;;;19.40;49.74;101383.81;5080902;27;107742;-40
2020/12/22 21:01:29;;;;;;;2.45;1.60;;;;;;;19.40;49.92;101377.56;5080607;27;107262;-40
2020/12/22 21:03:56;;;;;;;1.88;1.35;;;;;;;19.40;49.89;101373.06;5073117;27;124100;-40
2020/12/22 21:06:22;;;;;;;2.15;1.50;;;;;;;19.38;49.72;101364.25;5055248;27;122999;-40
2020/12/22 21:08:49;;;;;;;2.70;1.40;;;;;;;19.38;49.87;101371.44;5083628;27;107756;-40
2020/12/22 21:11:15;;;;;;;2.00;1.30;;;;;;;19.36;50.09;101366.16;5076344;27;107904;-39
2020/12/22 21:13:42;;;;;;;2.40;1.38;;;;;;;19.35;49.88;101371.69;5081812;27;124890;-40
2020/12/22 21:16:12;;;;;;;2.17;1.42;;;;;;;19.36;49.70;101376.06;5082004;27;124564;-40
2020/12/22 21:18:40;;;;;;;3.60;1.60;;;;;;;19.34;49.85;101378.00;5084050;27;107395;-40
2020/12/22 21:21:07;;;;;;;1.92;1.30;;;;;;;19.35;49.79;101374.38;5081638;27;107516;-39
2020/12/22 21:23:34;;;;;;;1.95;1.52;;;;;;;19.35;49.79;101385.13;5074667;27;124655;-39
2020/12/22 21:26:00;;;;;;;2.17;1.30;;;;;;;19.33;49.63;101393.28;5071759;27;125207;-40
2020/12/22 21:28:27;;;;;;;3.80;1.55;;;;;;;19.31;49.85;101394.34;5075797;27;107619;-40
2020/12/22 21:30:54;;;;;;;2.25;1.45;;;;;;;19.30;49.93;101398.00;5084299;27;107346;-40
2020/12/22 21:33:20;;;;;;;1.70;1.27;;;;;;;19.30;49.89;101392.63;5080494;27;123731;-40
2020/12/22 21:35:47;;;;;;;1.92;1.40;;;;;;;19.29;49.85;101397.16;5075421;27;123795;-40
2020/12/22 21:38:14;;;;;;;2.42;1.33;;;;;;;19.29;49.87;101396.28;5077833;27;107779;-40
2020/12/22 21:40:40;;;;;;;1.73;1.30;;;;;;;19.28;49.92;101389.22;5072219;27;107350;-40
2020/12/22 21:43:07;;;;;;;3.00;2.40;;;;;;;19.28;49.79;101399.94;5067637;22;124095;-94
2020/12/22 21:49:51;;;;;;;2.30;2.10;;;;;;;19.27;49.82;101388.38;5037119;27;108357;-93
2020/12/22 21:52:18;;;;;;;2.08;1.52;;;;;;;19.26;49.83;101382.09;5053675;27;106570;-94
2020/12/22 21:54:46;;;;;;;2.28;1.35;;;;;;;19.26;49.94;101375.88;5042901;28;123693;-95
2020/12/22 21:57:13;;;;;;;1.45;1.10;;;;;;;19.26;49.62;101368.69;5044157;28;122705;-93
2020/12/22 21:59:40;;;;;;;1.70;1.30;;;;;;;19.26;49.81;101366.00;5034632;27;107034;-94
2020/12/22 22:02:07;;;;;;;2.67;1.42;;;;;;;19.26;49.85;101355.25;5021250;22;107074;-39
2020/12/22 22:04:33;;;;;;;2.10;1.33;;;;;;;19.26;49.81;101363.31;4998753;28;124086;-39
2020/12/22 22:07:00;;;;;;;2.42;1.90;;;;;;;19.26;49.75;101360.63;4999587;28;124723;-39
2020/12/22 22:09:27;;;;;;;1.48;1.17;;;;;;;19.24;49.82;101351.81;5001488;28;107287;-39
2020/12/22 22:11:53;;;;;;;4.43;1.33;;;;;;;19.24;49.68;101346.44;5011737;28;107433;-39
2020/12/22 22:14:20;;;;;;;1.55;1.20;;;;;;;19.24;49.71;101345.59;5023653;28;123944;-39
2020/12/22 22:16:51;;;;;;;1.90;1.30;;;;;;;19.22;49.63;101345.72;5022054;28;124143;-39
2020/12/22 22:19:18;;;;;;;2.00;1.33;;;;;;;19.22;49.63;101353.78;5022723;28;108325;-39
2020/12/22 22:21:50;;;;;;;1.60;1.42;;;;;;;19.22;49.71;101343.03;5021031;28;108044;-39
2020/12/22 22:24:20;;;;;;;1.52;1.15;;;;;;;19.22;49.86;101337.66;5023538;28;124452;-39
2020/12/22 22:26:48;;;;;;;2.42;1.30;;;;;;;19.22;49.83;101336.81;5014675;27;125324;-39
2020/12/22 22:29:15;;;;;;;1.88;1.20;;;;;;;19.21;49.74;101335.97;5024103;28;107886;-39
2020/12/22 22:31:42;;;;;;;2.15;1.40;;;;;;;19.22;49.90;101337.66;5025133;28;107508;-39
2020/12/22 22:34:09;;;;;;;1.50;1.33;;;;;;;19.21;49.66;101343.13;5004770;28;123878;-39
2020/12/22 22:36:40;;;;;;;1.83;1.23;;;;;;;19.21;49.72;101335.97;5020169;28;124285;-39
2020/12/22 22:39:07;;;;;;;2.85;1.20;;;;;;;19.20;49.75;101339.59;5019649;28;107757;-39
2020/12/22 22:41:34;;;;;;;1.50;1.20;;;;;;;19.21;49.93;101346.69;5017744;28;107222;-39
2020/12/22 22:44:01;;;;;;;2.28;1.30;;;;;;;19.19;49.79;101340.59;4999918;28;123340;-39
2020/12/22 22:46:28;;;;;;;1.88;1.30;;;;;;;19.19;49.72;101337.91;5025389;28;124347;-39
2020/12/22 22:48:54;;;;;;;2.00;1.13;;;;;;;19.19;49.78;101343.28;5027725;28;107530;-39
2020/12/22 22:51:21;;;;;;;2.13;1.23;;;;;;;19.18;49.88;101352.28;5022574;28;106495;-39
2020/12/22 22:53:48;;;;;;;1.52;1.20;;;;;;;19.17;49.70;101345.19;5025564;28;124771;-39
2020/12/22 22:56:22;;;;;;;1.48;1.38;;;;;;;19.19;49.62;101348.66;5023538;28;123872;-39
2020/12/22 22:58:49;;;;;;;1.60;1.10;;;;;;;19.18;49.73;101346.91;5026186;28;107891;-39
2020/12/22 23:01:16;;;;;;;1.77;1.50;;;;;;;19.17;49.79;101339.81;5005135;28;106589;-39
2020/12/22 23:03:44;;;;;;;2.13;1.20;;;;;;;19.15;49.72;101347.13;5022659;28;124919;-38
2020/12/22 23:06:12;;;;;;;1.98;1.27;;;;;;;19.15;49.74;101347.13;5026711;28;123894;-38
2020/12/22 23:08:39;;;;;;;2.15;1.33;;;;;;;19.16;49.76;101343.50;5023013;28;107508;-38
2020/12/22 23:11:09;;;;;;;2.03;1.27;;;;;;;19.15;49.78;101341.75;5030622;28;107720;-39
2020/12/22 23:13:37;;;;;;;1.33;1.08;;;;;;;19.15;49.70;101331.00;5029132;28;124793;-39
2020/12/22 23:16:04;;;;;;;2.17;1.23;;;;;;;19.15;49.83;101339.06;5026155;28;124017;-39
2020/12/22 23:18:31;;;;;;;1.63;1.25;;;;;;;19.14;49.68;101337.38;5024155;28;107598;-39
2020/12/22 23:20:59;;;;;;;1.95;1.20;;;;;;;19.15;49.78;101324.78;5023119;28;107329;-39
2020/12/22 23:23:27;;;;;;;1.60;1.33;;;;;;;19.15;49.67;101322.97;5034291;28;124495;-39
2020/12/22 23:25:55;;;;;;;2.50;1.33;;;;;;;19.16;49.58;101327.38;5027117;28;123871;-39
2020/12/22 23:28:23;;;;;;;1.80;1.30;;;;;;;19.16;49.84;101322.00;5021963;28;106634;-38
2020/12/22 23:30:51;;;;;;;1.65;1.40;;;;;;;19.15;49.85;101322.97;5021557;28;107463;-39
2020/12/22 23:33:19;;;;;;;1.70;1.27;;;;;;;19.15;49.68;101314.91;5032821;28;124733;-39
2020/12/22 23:35:45;;;;;;;2.28;1.42;;;;;;;19.16;49.67;101322.00;5026860;28;123871;-39
2020/12/22 23:38:12;;;;;;;2.40;1.70;;;;;;;19.16;49.64;101321.16;5030084;28;107607;-39
2020/12/22 23:40:39;;;;;;;2.10;1.58;;;;;;;19.15;49.63;101314.91;5026516;28;107432;-39
2020/12/22 23:43:05;;;;;;;1.70;1.30;;;;;;;19.15;49.90;101320.28;5030419;28;124164;-39
2020/12/22 23:45:32;;;;;;;1.63;1.40;;;;;;;19.14;49.79;101315.88;5007846;28;124029;-39
2020/12/22 23:47:59;;;;;;;2.08;1.55;;;;;;;19.14;49.64;101323.94;5028722;28;107560;-39
2020/12/22 23:50:26;;;;;;;2.85;1.60;;;;;;;19.14;49.66;101323.09;5005365;28;107706;-39
2020/12/22 23:52:53;;;;;;;1.63;1.50;;;;;;;19.14;49.72;101323.09;5022205;28;124578;-39
2020/12/22 23:55:19;;;;;;;2.38;1.60;;;;;;;19.13;49.59;101319.53;5023316;28;125781;-39
2020/12/22 23:57:46;;;;;;;1.83;1.60;;;;;;;19.14;49.56;101323.94;5024763;28;107544;-39
